sensor_id;sensor_type;location;lat;lon;timestamp;pressure;altitude;pressure_sealevel;temperature;humidity
22031;BME280;11179;52.106;21.024;2023-11-19T00:01:48;101129.38;;;1.01;70.56
22031;BME280;11179;52.106;21.024;2023-11-19T00:04:14;101118.56;;;1.01;70.71
22031;BME280;11179;52.106;21.024;2023-11-19T00:06:39;101112.03;;;0.88;70.62
22031;BME280;11179;52.106;21.024;2023-11-19T00:09:04;101116.94;;;0.84;70.61
22031;BME280;11179;52.106;21.024;2023-11-19T00:11:30;101076.75;;;0.50;70.79
22031;BME280;11179;52.106;21.024;2023-11-19T00:13:56;101103.69;;;0.66;70.80
22031;BME280;11179;52.106;21.024;2023-11-19T00:16:21;101056.50;;;0.46;70.77
22031;BME280;11179;52.106;21.024;2023-11-19T00:18:46;101126.41;;;0.88;70.62
22031;BME280;11179;52.106;21.024;2023-11-19T00:21:12;101081.03;;;0.67;70.82
22031;BME280;11179;52.106;21.024;2023-11-19T00:23:37;101064.06;;;0.50;70.80
22031;BME280;11179;52.106;21.024;2023-11-19T00:26:03;101104.44;;;0.83;71.08
22031;BME280;11179;52.106;21.024;2023-11-19T00:28:31;101094.78;;;0.89;70.70
22031;BME280;11179;52.106;21.024;2023-11-19T00:30:56;101104.00;;;1.02;70.84
22031;BME280;11179;52.106;21.024;2023-11-19T00:33:22;101101.13;;;1.04;70.59
22031;BME280;11179;52.106;21.024;2023-11-19T00:35:47;101092.03;;;0.97;70.70
22031;BME280;11179;52.106;21.024;2023-11-19T00:38:13;101099.28;;;1.04;70.60
22031;BME280;11179;52.106;21.024;2023-11-19T00:40:38;101096.41;;;1.06;70.55
22031;BME280;11179;52.106;21.024;2023-11-19T00:43:05;101090.59;;;1.09;70.71
22031;BME280;11179;52.106;21.024;2023-11-19T00:45:31;101068.38;;;0.99;70.47
22031;BME280;11179;52.106;21.024;2023-11-19T00:47:56;101070.53;;;1.03;70.58
22031;BME280;11179;52.106;21.024;2023-11-19T00:50:24;101082.31;;;1.10;70.51
22031;BME280;11179;52.106;21.024;2023-11-19T00:52:49;101055.50;;;1.01;70.53
22031;BME280;11179;52.106;21.024;2023-11-19T00:55:15;101068.63;;;1.12;70.49
22031;BME280;11179;52.106;21.024;2023-11-19T00:57:40;101073.66;;;1.15;70.60
22031;BME280;11179;52.106;21.024;2023-11-19T01:00:06;101053.28;;;1.04;70.57
22031;BME280;11179;52.106;21.024;2023-11-19T01:02:43;101064.34;;;1.17;70.63
22031;BME280;11179;52.106;21.024;2023-11-19T01:05:08;101060.25;;;1.21;70.56
22031;BME280;11179;52.106;21.024;2023-11-19T01:07:34;101050.00;;;1.17;70.46
22031;BME280;11179;52.106;21.024;2023-11-19T01:09:59;100982.84;;;0.75;70.33
22031;BME280;11179;52.106;21.024;2023-11-19T01:12:24;101032.28;;;1.06;70.41
22031;BME280;11179;52.106;21.024;2023-11-19T01:14:50;101029.31;;;1.01;70.07
22031;BME280;11179;52.106;21.024;2023-11-19T01:17:15;100992.16;;;0.72;70.31
22031;BME280;11179;52.106;21.024;2023-11-19T01:19:41;101008.53;;;0.79;70.61
22031;BME280;11179;52.106;21.024;2023-11-19T01:22:06;101015.72;;;0.86;70.55
22031;BME280;11179;52.106;21.024;2023-11-19T01:24:32;101023.13;;;0.93;70.42
22031;BME280;11179;52.106;21.024;2023-11-19T01:26:57;101009.81;;;0.83;70.53
22031;BME280;11179;52.106;21.024;2023-11-19T01:29:25;101007.84;;;0.77;70.59
22031;BME280;11179;52.106;21.024;2023-11-19T01:31:50;100997.56;;;0.72;70.46
22031;BME280;11179;52.106;21.024;2023-11-19T01:34:18;101002.44;;;0.77;70.65
22031;BME280;11179;52.106;21.024;2023-11-19T01:36:43;100999.06;;;0.75;70.51
22031;BME280;11179;52.106;21.024;2023-11-19T01:39:09;101025.84;;;0.93;70.63
22031;BME280;11179;52.106;21.024;2023-11-19T01:41:35;101026.28;;;0.96;70.56
22031;BME280;11179;52.106;21.024;2023-11-19T01:44:01;101004.25;;;0.84;70.50
22031;BME280;11179;52.106;21.024;2023-11-19T01:46:26;100987.06;;;0.77;70.45
22031;BME280;11179;52.106;21.024;2023-11-19T01:48:52;100999.69;;;0.85;70.51
22031;BME280;11179;52.106;21.024;2023-11-19T01:51:17;100981.84;;;0.76;70.75
22031;BME280;11179;52.106;21.024;2023-11-19T01:53:43;100997.94;;;0.92;70.51
22031;BME280;11179;52.106;21.024;2023-11-19T01:56:11;100985.50;;;0.83;70.54
22031;BME280;11179;52.106;21.024;2023-11-19T01:58:40;101001.69;;;0.91;70.87
22031;BME280;11179;52.106;21.024;2023-11-19T02:01:07;101002.31;;;0.93;70.84
22031;BME280;11179;52.106;21.024;2023-11-19T02:03:33;100993.56;;;0.91;70.78
22031;BME280;11179;52.106;21.024;2023-11-19T02:05:59;100978.63;;;0.95;70.96
22031;BME280;11179;52.106;21.024;2023-11-19T02:08:25;100980.63;;;1.01;70.59
22031;BME280;11179;52.106;21.024;2023-11-19T02:10:51;100956.78;;;0.82;70.47
22031;BME280;11179;52.106;21.024;2023-11-19T02:13:18;100981.34;;;0.95;70.87
22031;BME280;11179;52.106;21.024;2023-11-19T02:15:43;100944.66;;;0.78;70.74
22031;BME280;11179;52.106;21.024;2023-11-19T02:18:23;100930.31;;;0.77;70.78
22031;BME280;11179;52.106;21.024;2023-11-19T02:20:49;100921.22;;;0.70;70.63
22031;BME280;11179;52.106;21.024;2023-11-19T02:23:15;100939.59;;;0.75;70.67
22031;BME280;11179;52.106;21.024;2023-11-19T02:25:41;100934.06;;;0.68;70.87
22031;BME280;11179;52.106;21.024;2023-11-19T02:28:08;100927.47;;;0.71;70.79
22031;BME280;11179;52.106;21.024;2023-11-19T02:30:33;100959.63;;;0.89;70.89
22031;BME280;11179;52.106;21.024;2023-11-19T02:32:59;100920.72;;;0.67;70.93
22031;BME280;11179;52.106;21.024;2023-11-19T02:35:28;100934.47;;;0.80;70.97
22031;BME280;11179;52.106;21.024;2023-11-19T02:37:57;100928.91;;;0.81;70.91
22031;BME280;11179;52.106;21.024;2023-11-19T02:40:23;100939.09;;;0.94;70.78
22031;BME280;11179;52.106;21.024;2023-11-19T02:42:52;100937.06;;;0.96;71.07
22031;BME280;11179;52.106;21.024;2023-11-19T02:45:17;100933.41;;;0.89;70.88
22031;BME280;11179;52.106;21.024;2023-11-19T02:47:43;100938.38;;;1.00;70.89
22031;BME280;11179;52.106;21.024;2023-11-19T02:50:10;100936.16;;;1.04;70.96
22031;BME280;11179;52.106;21.024;2023-11-19T02:52:42;100934.94;;;1.06;71.10
22031;BME280;11179;52.106;21.024;2023-11-19T02:55:09;100901.25;;;0.94;71.01
22031;BME280;11179;52.106;21.024;2023-11-19T02:57:37;100871.94;;;0.83;70.84
22031;BME280;11179;52.106;21.024;2023-11-19T03:00:04;100899.41;;;1.09;70.96
22031;BME280;11179;52.106;21.024;2023-11-19T03:02:39;100901.41;;;1.15;70.99
22031;BME280;11179;52.106;21.024;2023-11-19T03:05:10;100875.19;;;1.01;70.97
22031;BME280;11179;52.106;21.024;2023-11-19T03:07:35;100863.50;;;1.01;70.75
22031;BME280;11179;52.106;21.024;2023-11-19T03:10:01;100894.63;;;1.19;70.81
22031;BME280;11179;52.106;21.024;2023-11-19T03:12:26;100872.19;;;1.11;70.81
22031;BME280;11179;52.106;21.024;2023-11-19T03:14:52;100877.72;;;1.17;70.89
22031;BME280;11179;52.106;21.024;2023-11-19T03:17:17;100870.63;;;1.16;70.96
22031;BME280;11179;52.106;21.024;2023-11-19T03:19:43;100849.06;;;1.08;70.88
22031;BME280;11179;52.106;21.024;2023-11-19T03:22:09;100853.94;;;1.13;70.91
22031;BME280;11179;52.106;21.024;2023-11-19T03:24:36;100869.88;;;1.22;70.80
22031;BME280;11179;52.106;21.024;2023-11-19T03:27:01;100831.38;;;1.06;71.04
22031;BME280;11179;52.106;21.024;2023-11-19T03:29:26;100829.47;;;1.06;70.96
22031;BME280;11179;52.106;21.024;2023-11-19T03:31:53;100853.19;;;1.19;70.87
22031;BME280;11179;52.106;21.024;2023-11-19T03:34:19;100805.50;;;0.89;70.70
22031;BME280;11179;52.106;21.024;2023-11-19T03:36:44;100857.19;;;1.23;70.76
22031;BME280;11179;52.106;21.024;2023-11-19T03:39:09;100866.44;;;1.29;70.64
22031;BME280;11179;52.106;21.024;2023-11-19T03:41:34;100829.28;;;1.08;70.55
22031;BME280;11179;52.106;21.024;2023-11-19T03:44:00;100843.47;;;1.25;70.94
22031;BME280;11179;52.106;21.024;2023-11-19T03:46:25;100843.47;;;1.25;70.54
22031;BME280;11179;52.106;21.024;2023-11-19T03:48:51;100792.56;;;0.99;70.57
22031;BME280;11179;52.106;21.024;2023-11-19T03:51:16;100845.28;;;1.32;70.70
22031;BME280;11179;52.106;21.024;2023-11-19T03:53:43;100814.84;;;1.15;70.60
22031;BME280;11179;52.106;21.024;2023-11-19T03:56:09;100790.69;;;0.99;70.43
22031;BME280;11179;52.106;21.024;2023-11-19T03:58:35;100801.22;;;1.09;70.63
22031;BME280;11179;52.106;21.024;2023-11-19T04:01:01;100798.16;;;1.12;70.33
22031;BME280;11179;52.106;21.024;2023-11-19T04:03:26;100825.56;;;1.23;70.34
22031;BME280;11179;52.106;21.024;2023-11-19T04:05:51;100810.53;;;1.06;70.32
22031;BME280;11179;52.106;21.024;2023-11-19T04:08:17;100806.38;;;1.04;70.31
22031;BME280;11179;52.106;21.024;2023-11-19T04:10:42;100809.91;;;1.04;70.26
22031;BME280;11179;52.106;21.024;2023-11-19T04:13:07;100771.38;;;0.88;70.56
22031;BME280;11179;52.106;21.024;2023-11-19T04:15:33;100767.19;;;0.85;70.60
22031;BME280;11179;52.106;21.024;2023-11-19T04:17:58;100761.03;;;0.76;70.33
22031;BME280;11179;52.106;21.024;2023-11-19T04:20:23;100750.28;;;0.68;70.48
22031;BME280;11179;52.106;21.024;2023-11-19T04:22:50;100799.63;;;1.00;70.51
22031;BME280;11179;52.106;21.024;2023-11-19T04:25:16;100773.97;;;0.81;70.68
22031;BME280;11179;52.106;21.024;2023-11-19T04:27:41;100786.75;;;0.87;70.51
22031;BME280;11179;52.106;21.024;2023-11-19T04:30:07;100750.19;;;0.62;70.55
22031;BME280;11179;52.106;21.024;2023-11-19T04:32:32;100756.34;;;0.70;70.87
22031;BME280;11179;52.106;21.024;2023-11-19T04:34:57;100770.53;;;0.72;70.76
22031;BME280;11179;52.106;21.024;2023-11-19T04:37:23;100761.84;;;0.62;70.73
22031;BME280;11179;52.106;21.024;2023-11-19T04:39:48;100755.25;;;0.65;70.88
22031;BME280;11179;52.106;21.024;2023-11-19T04:42:13;100763.25;;;0.73;70.84
22031;BME280;11179;52.106;21.024;2023-11-19T04:44:43;100759.06;;;0.70;71.07
22031;BME280;11179;52.106;21.024;2023-11-19T04:47:08;100722.88;;;0.57;71.24
22031;BME280;11179;52.106;21.024;2023-11-19T04:49:40;100754.22;;;0.80;71.25
22031;BME280;11179;52.106;21.024;2023-11-19T04:52:05;100721.50;;;0.61;71.08
22031;BME280;11179;52.106;21.024;2023-11-19T04:54:30;100763.09;;;0.89;71.27
22031;BME280;11179;52.106;21.024;2023-11-19T04:56:56;100724.09;;;0.69;71.02
22031;BME280;11179;52.106;21.024;2023-11-19T04:59:21;100743.88;;;0.84;71.23
22031;BME280;11179;52.106;21.024;2023-11-19T05:01:47;100720.00;;;0.73;71.29
22031;BME280;11179;52.106;21.024;2023-11-19T05:04:13;100744.53;;;0.86;71.20
22031;BME280;11179;52.106;21.024;2023-11-19T05:06:38;100737.09;;;0.88;71.26
22031;BME280;11179;52.106;21.024;2023-11-19T05:09:04;100724.41;;;0.89;71.19
22031;BME280;11179;52.106;21.024;2023-11-19T05:11:37;100696.53;;;0.73;71.48
22031;BME280;11179;52.106;21.024;2023-11-19T05:14:03;100677.13;;;0.70;71.62
22031;BME280;11179;52.106;21.024;2023-11-19T05:16:29;100721.34;;;0.92;71.25
22031;BME280;11179;52.106;21.024;2023-11-19T05:18:54;100717.59;;;0.93;71.49
22031;BME280;11179;52.106;21.024;2023-11-19T05:21:20;100679.00;;;0.69;71.59
22031;BME280;11179;52.106;21.024;2023-11-19T05:23:45;100682.06;;;0.81;71.49
22031;BME280;11179;52.106;21.024;2023-11-19T05:26:19;100706.22;;;0.97;71.53
22031;BME280;11179;52.106;21.024;2023-11-19T05:28:45;100689.06;;;0.90;71.30
22031;BME280;11179;52.106;21.024;2023-11-19T05:31:10;100715.63;;;1.01;71.38
22031;BME280;11179;52.106;21.024;2023-11-19T05:33:35;100694.94;;;0.94;71.58
22031;BME280;11179;52.106;21.024;2023-11-19T05:36:01;100683.66;;;0.90;71.45
22031;BME280;11179;52.106;21.024;2023-11-19T05:38:28;100708.44;;;1.08;71.50
22031;BME280;11179;52.106;21.024;2023-11-19T05:40:54;100684.94;;;0.94;71.27
22031;BME280;11179;52.106;21.024;2023-11-19T05:43:19;100696.34;;;1.04;71.19
22031;BME280;11179;52.106;21.024;2023-11-19T05:45:44;100703.03;;;1.08;71.28
22031;BME280;11179;52.106;21.024;2023-11-19T05:48:10;100673.28;;;0.94;71.20
22031;BME280;11179;52.106;21.024;2023-11-19T05:50:35;100692.31;;;1.00;71.20
22031;BME280;11179;52.106;21.024;2023-11-19T05:53:01;100688.59;;;1.01;71.14
22031;BME280;11179;52.106;21.024;2023-11-19T05:55:26;100658.13;;;0.78;71.12
22031;BME280;11179;52.106;21.024;2023-11-19T05:57:53;100698.09;;;0.97;71.10
22031;BME280;11179;52.106;21.024;2023-11-19T06:00:19;100666.63;;;0.75;71.30
22031;BME280;11179;52.106;21.024;2023-11-19T06:02:44;100682.00;;;0.89;71.51
22031;BME280;11179;52.106;21.024;2023-11-19T06:05:10;100701.94;;;1.03;71.51
22031;BME280;11179;52.106;21.024;2023-11-19T06:07:35;100638.84;;;0.66;71.11
22031;BME280;11179;52.106;21.024;2023-11-19T06:10:02;100699.88;;;1.05;71.32
22031;BME280;11179;52.106;21.024;2023-11-19T06:12:28;100701.75;;;1.04;71.20
22031;BME280;11179;52.106;21.024;2023-11-19T06:14:53;100685.41;;;0.98;71.12
22031;BME280;11179;52.106;21.024;2023-11-19T06:17:19;100663.16;;;0.81;71.00
22031;BME280;11179;52.106;21.024;2023-11-19T06:19:44;100623.38;;;0.60;71.20
22031;BME280;11179;52.106;21.024;2023-11-19T06:22:10;100683.38;;;1.00;71.00
22031;BME280;11179;52.106;21.024;2023-11-19T06:24:36;100687.75;;;1.01;70.94
22031;BME280;11179;52.106;21.024;2023-11-19T06:27:02;100687.09;;;0.99;70.71
22031;BME280;11179;52.106;21.024;2023-11-19T06:29:28;100666.13;;;0.86;70.74
22031;BME280;11179;52.106;21.024;2023-11-19T06:31:53;100664.75;;;0.90;70.48
22031;BME280;11179;52.106;21.024;2023-11-19T06:34:18;100646.50;;;0.77;70.50
22031;BME280;11179;52.106;21.024;2023-11-19T06:36:44;100621.34;;;0.62;70.57
22031;BME280;11179;52.106;21.024;2023-11-19T06:39:09;100644.34;;;0.73;70.37
22031;BME280;11179;52.106;21.024;2023-11-19T06:41:36;100662.13;;;0.82;70.39
22031;BME280;11179;52.106;21.024;2023-11-19T06:44:03;100643.88;;;0.69;70.54
22031;BME280;11179;52.106;21.024;2023-11-19T06:46:29;100660.25;;;0.82;70.32
22031;BME280;11179;52.106;21.024;2023-11-19T06:48:55;100635.38;;;0.72;70.52
22031;BME280;11179;52.106;21.024;2023-11-19T06:51:20;100633.72;;;0.71;70.59
22031;BME280;11179;52.106;21.024;2023-11-19T06:53:45;100645.81;;;0.90;70.25
22031;BME280;11179;52.106;21.024;2023-11-19T06:56:20;100601.41;;;0.63;69.98
22031;BME280;11179;52.106;21.024;2023-11-19T06:58:46;100600.19;;;0.66;70.15
22031;BME280;11179;52.106;21.024;2023-11-19T07:01:13;100606.88;;;0.70;70.03
22031;BME280;11179;52.106;21.024;2023-11-19T07:03:38;100638.44;;;0.99;70.36
22031;BME280;11179;52.106;21.024;2023-11-19T07:06:04;100601.91;;;0.88;70.03
22031;BME280;11179;52.106;21.024;2023-11-19T07:08:30;100623.69;;;1.01;69.84
22031;BME280;11179;52.106;21.024;2023-11-19T07:10:55;100615.59;;;1.01;69.82
22031;BME280;11179;52.106;21.024;2023-11-19T07:13:21;100583.47;;;0.92;69.63
22031;BME280;11179;52.106;21.024;2023-11-19T07:15:46;100604.00;;;1.07;69.76
22031;BME280;11179;52.106;21.024;2023-11-19T07:18:11;100579.13;;;0.97;69.62
22031;BME280;11179;52.106;21.024;2023-11-19T07:20:37;100567.41;;;0.90;69.49
22031;BME280;11179;52.106;21.024;2023-11-19T07:23:03;100601.69;;;1.04;69.60
22031;BME280;11179;52.106;21.024;2023-11-19T07:25:28;100603.38;;;1.05;69.51
22031;BME280;11179;52.106;21.024;2023-11-19T07:27:54;100588.75;;;1.00;69.68
22031;BME280;11179;52.106;21.024;2023-11-19T07:30:19;100594.06;;;0.93;69.65
22031;BME280;11179;52.106;21.024;2023-11-19T07:32:44;100574.50;;;0.91;69.77
22031;BME280;11179;52.106;21.024;2023-11-19T07:35:10;100594.03;;;1.08;69.70
22031;BME280;11179;52.106;21.024;2023-11-19T07:37:35;100584.34;;;0.99;69.88
22031;BME280;11179;52.106;21.024;2023-11-19T07:40:00;100579.66;;;1.07;69.68
22031;BME280;11179;52.106;21.024;2023-11-19T07:42:26;100577.22;;;1.12;69.61
22031;BME280;11179;52.106;21.024;2023-11-19T07:44:51;100581.22;;;1.16;69.56
22031;BME280;11179;52.106;21.024;2023-11-19T07:47:16;100560.72;;;1.07;69.48
22031;BME280;11179;52.106;21.024;2023-11-19T07:49:42;100579.19;;;1.18;69.57
22031;BME280;11179;52.106;21.024;2023-11-19T07:52:09;100573.03;;;1.10;69.44
22031;BME280;11179;52.106;21.024;2023-11-19T07:54:34;100555.13;;;1.09;69.51
22031;BME280;11179;52.106;21.024;2023-11-19T07:56:59;100560.88;;;1.20;69.40
22031;BME280;11179;52.106;21.024;2023-11-19T07:59:25;100498.53;;;0.86;69.38
22031;BME280;11179;52.106;21.024;2023-11-19T08:01:50;100562.06;;;1.33;69.27
22031;BME280;11179;52.106;21.024;2023-11-19T08:04:15;100528.41;;;1.20;69.25
22031;BME280;11179;52.106;21.024;2023-11-19T08:06:41;100535.13;;;1.25;69.33
22031;BME280;11179;52.106;21.024;2023-11-19T08:09:06;100556.56;;;1.26;69.21
22031;BME280;11179;52.106;21.024;2023-11-19T08:11:32;100534.72;;;1.28;69.59
22031;BME280;11179;52.106;21.024;2023-11-19T08:13:58;100529.78;;;1.31;69.47
22031;BME280;11179;52.106;21.024;2023-11-19T08:16:24;100522.06;;;1.28;69.39
22031;BME280;11179;52.106;21.024;2023-11-19T08:18:49;100540.06;;;1.42;69.29
22031;BME280;11179;52.106;21.024;2023-11-19T08:21:14;100514.31;;;1.25;69.03
22031;BME280;11179;52.106;21.024;2023-11-19T08:23:40;100524.41;;;1.38;69.27
22031;BME280;11179;52.106;21.024;2023-11-19T08:26:06;100529.94;;;1.51;69.11
22031;BME280;11179;52.106;21.024;2023-11-19T08:28:31;100518.28;;;1.50;69.47
22031;BME280;11179;52.106;21.024;2023-11-19T08:30:56;100497.25;;;1.46;69.05
22031;BME280;11179;52.106;21.024;2023-11-19T08:33:22;100508.94;;;1.53;68.68
22031;BME280;11179;52.106;21.024;2023-11-19T08:35:48;100509.19;;;1.58;69.21
22031;BME280;11179;52.106;21.024;2023-11-19T08:38:15;100471.94;;;1.32;68.95
22031;BME280;11179;52.106;21.024;2023-11-19T08:40:41;100467.50;;;1.52;69.14
22031;BME280;11179;52.106;21.024;2023-11-19T08:43:06;100494.81;;;1.85;68.91
22031;BME280;11179;52.106;21.024;2023-11-19T08:45:31;100453.50;;;1.70;68.40
22031;BME280;11179;52.106;21.024;2023-11-19T08:47:57;100503.50;;;2.09;68.50
22031;BME280;11179;52.106;21.024;2023-11-19T08:50:22;100471.97;;;1.94;68.23
22031;BME280;11179;52.106;21.024;2023-11-19T08:52:49;100485.88;;;1.91;68.21
22031;BME280;11179;52.106;21.024;2023-11-19T08:55:14;100457.69;;;1.73;68.21
22031;BME280;11179;52.106;21.024;2023-11-19T08:57:39;100482.31;;;1.84;68.45
22031;BME280;11179;52.106;21.024;2023-11-19T09:00:05;100485.88;;;1.91;68.27
22031;BME280;11179;52.106;21.024;2023-11-19T09:02:36;100462.25;;;1.72;68.35
22031;BME280;11179;52.106;21.024;2023-11-19T09:05:05;100480.84;;;1.82;68.51
22031;BME280;11179;52.106;21.024;2023-11-19T09:07:32;100470.41;;;1.79;68.31
22031;BME280;11179;52.106;21.024;2023-11-19T09:09:58;100429.88;;;1.57;68.27
22031;BME280;11179;52.106;21.024;2023-11-19T09:12:23;100447.44;;;1.68;68.46
22031;BME280;11179;52.106;21.024;2023-11-19T09:14:49;100448.28;;;1.75;68.45
22031;BME280;11179;52.106;21.024;2023-11-19T09:17:15;100463.19;;;1.86;68.29
22031;BME280;11179;52.106;21.024;2023-11-19T09:23:06;100431.84;;;1.77;68.33
22031;BME280;11179;52.106;21.024;2023-11-19T09:25:31;100444.72;;;1.68;67.96
22031;BME280;11179;52.106;21.024;2023-11-19T09:27:57;100427.50;;;1.48;68.53
22031;BME280;11179;52.106;21.024;2023-11-19T09:30:22;100441.75;;;1.56;68.57
22031;BME280;11179;52.106;21.024;2023-11-19T09:32:48;100426.91;;;1.52;68.69
22031;BME280;11179;52.106;21.024;2023-11-19T09:35:13;100427.19;;;1.57;68.74
22031;BME280;11179;52.106;21.024;2023-11-19T09:37:40;100409.69;;;1.60;68.72
22031;BME280;11179;52.106;21.024;2023-11-19T09:40:06;100370.47;;;1.43;68.58
22031;BME280;11179;52.106;21.024;2023-11-19T09:42:44;100410.31;;;1.62;68.64
22031;BME280;11179;52.106;21.024;2023-11-19T09:45:13;100401.41;;;1.68;68.63
22031;BME280;11179;52.106;21.024;2023-11-19T09:47:42;100354.63;;;1.40;68.71
22031;BME280;11179;52.106;21.024;2023-11-19T09:50:08;100401.88;;;1.72;68.70
22031;BME280;11179;52.106;21.024;2023-11-19T09:52:34;100372.59;;;1.54;68.39
22031;BME280;11179;52.106;21.024;2023-11-19T09:55:00;100395.13;;;1.61;68.64
22031;BME280;11179;52.106;21.024;2023-11-19T09:57:26;100373.00;;;1.51;68.89
22031;BME280;11179;52.106;21.024;2023-11-19T09:59:53;100389.94;;;1.66;68.94
22031;BME280;11179;52.106;21.024;2023-11-19T10:02:19;100367.59;;;1.51;68.66
22031;BME280;11179;52.106;21.024;2023-11-19T10:04:46;100334.41;;;1.36;68.82
22031;BME280;11179;52.106;21.024;2023-11-19T10:07:12;100360.56;;;1.56;68.88
22031;BME280;11179;52.106;21.024;2023-11-19T10:09:37;100354.78;;;1.66;68.79
22031;BME280;11179;52.106;21.024;2023-11-19T10:12:03;100365.19;;;1.69;68.91
22031;BME280;11179;52.106;21.024;2023-11-19T10:14:31;100371.50;;;1.83;68.98
22031;BME280;11179;52.106;21.024;2023-11-19T10:16:56;100356.03;;;1.70;68.73
22031;BME280;11179;52.106;21.024;2023-11-19T10:19:22;100363.53;;;1.68;68.71
22031;BME280;11179;52.106;21.024;2023-11-19T10:21:48;100342.91;;;1.67;68.81
22031;BME280;11179;52.106;21.024;2023-11-19T10:24:13;100353.56;;;1.75;68.73
22031;BME280;11179;52.106;21.024;2023-11-19T10:26:40;100339.38;;;1.67;68.72
22031;BME280;11179;52.106;21.024;2023-11-19T10:29:05;100338.97;;;1.70;68.58
22031;BME280;11179;52.106;21.024;2023-11-19T10:31:31;100291.75;;;1.38;68.88
22031;BME280;11179;52.106;21.024;2023-11-19T10:33:56;100296.13;;;1.32;68.86
22031;BME280;11179;52.106;21.024;2023-11-19T10:36:22;100331.19;;;1.53;69.18
22031;BME280;11179;52.106;21.024;2023-11-19T10:38:53;100319.53;;;1.53;69.12
22031;BME280;11179;52.106;21.024;2023-11-19T10:41:31;100322.69;;;1.63;69.13
22031;BME280;11179;52.106;21.024;2023-11-19T10:43:58;100316.19;;;1.51;69.26
22031;BME280;11179;52.106;21.024;2023-11-19T10:46:36;100315.34;;;1.50;69.24
22031;BME280;11179;52.106;21.024;2023-11-19T10:49:01;100315.78;;;1.54;69.18
22031;BME280;11179;52.106;21.024;2023-11-19T10:51:28;100309.13;;;1.56;69.35
22031;BME280;11179;52.106;21.024;2023-11-19T10:53:56;100301.84;;;1.57;69.48
22031;BME280;11179;52.106;21.024;2023-11-19T10:56:27;100298.53;;;1.62;69.46
22031;BME280;11179;52.106;21.024;2023-11-19T10:58:55;100284.75;;;1.50;69.06
22031;BME280;11179;52.106;21.024;2023-11-19T11:01:26;100271.59;;;1.47;69.65
22031;BME280;11179;52.106;21.024;2023-11-19T11:03:53;100275.19;;;1.54;69.45
22031;BME280;11179;52.106;21.024;2023-11-19T11:06:22;100274.59;;;1.58;69.48
22031;BME280;11179;52.106;21.024;2023-11-19T11:08:48;100276.47;;;1.65;69.31
22031;BME280;11179;52.106;21.024;2023-11-19T11:11:15;100254.81;;;1.65;69.40
22031;BME280;11179;52.106;21.024;2023-11-19T11:13:47;100254.63;;;1.66;69.20
22031;BME280;11179;52.106;21.024;2023-11-19T11:16:13;100223.97;;;1.52;69.22
22031;BME280;11179;52.106;21.024;2023-11-19T11:18:39;100248.13;;;1.61;69.22
22031;BME280;11179;52.106;21.024;2023-11-19T11:21:11;100237.53;;;1.59;69.60
22031;BME280;11179;52.106;21.024;2023-11-19T11:24:00;100235.25;;;1.63;69.59
22031;BME280;11179;52.106;21.024;2023-11-19T11:29:28;100217.78;;;1.65;69.58
22031;BME280;11179;52.106;21.024;2023-11-19T11:32:27;100216.50;;;1.61;69.68
22031;BME280;11179;52.106;21.024;2023-11-19T11:35:39;100211.94;;;1.62;69.59
22031;BME280;11179;52.106;21.024;2023-11-19T11:38:08;100194.41;;;1.51;69.30
22031;BME280;11179;52.106;21.024;2023-11-19T11:40:34;100200.91;;;1.56;69.22
22031;BME280;11179;52.106;21.024;2023-11-19T11:42:59;100159.81;;;1.33;69.51
22031;BME280;11179;52.106;21.024;2023-11-19T11:45:40;100144.81;;;1.24;69.64
22031;BME280;11179;52.106;21.024;2023-11-19T11:48:15;100171.06;;;1.37;69.79
22031;BME280;11179;52.106;21.024;2023-11-19T11:50:56;100187.56;;;1.55;69.53
22031;BME280;11179;52.106;21.024;2023-11-19T11:53:23;100178.81;;;1.59;69.68
22031;BME280;11179;52.106;21.024;2023-11-19T11:58:18;100167.38;;;1.57;69.75
22031;BME280;11179;52.106;21.024;2023-11-19T12:00:46;100150.91;;;1.46;69.68
22031;BME280;11179;52.106;21.024;2023-11-19T12:03:11;100134.88;;;1.44;69.97
22031;BME280;11179;52.106;21.024;2023-11-19T12:05:47;100111.34;;;1.32;69.67
22031;BME280;11179;52.106;21.024;2023-11-19T12:08:13;100144.91;;;1.57;70.05
22031;BME280;11179;52.106;21.024;2023-11-19T12:10:48;100131.53;;;1.49;69.87
22031;BME280;11179;52.106;21.024;2023-11-19T12:13:14;100137.81;;;1.56;70.14
22031;BME280;11179;52.106;21.024;2023-11-19T12:18:23;100113.84;;;1.46;70.04
22031;BME280;11179;52.106;21.024;2023-11-19T12:20:48;100110.34;;;1.46;69.92
22031;BME280;11179;52.106;21.024;2023-11-19T12:23:14;100108.25;;;1.41;69.95
22031;BME280;11179;52.106;21.024;2023-11-19T12:25:40;100107.81;;;1.38;70.19
22031;BME280;11179;52.106;21.024;2023-11-19T12:28:05;100109.91;;;1.49;70.30
22031;BME280;11179;52.106;21.024;2023-11-19T12:30:30;100087.44;;;1.42;70.24
22031;BME280;11179;52.106;21.024;2023-11-19T12:32:56;100102.81;;;1.48;70.08
22031;BME280;11179;52.106;21.024;2023-11-19T12:35:22;100100.75;;;1.50;70.06
22031;BME280;11179;52.106;21.024;2023-11-19T12:37:49;100082.44;;;1.39;70.14
22031;BME280;11179;52.106;21.024;2023-11-19T12:40:16;100098.69;;;1.52;70.34
22031;BME280;11179;52.106;21.024;2023-11-19T12:42:43;100084.31;;;1.51;70.25
22031;BME280;11179;52.106;21.024;2023-11-19T12:45:09;100071.84;;;1.44;70.14
22031;BME280;11179;52.106;21.024;2023-11-19T12:47:38;100097.00;;;1.51;70.20
22031;BME280;11179;52.106;21.024;2023-11-19T12:50:05;100069.94;;;1.38;70.18
22031;BME280;11179;52.106;21.024;2023-11-19T12:52:30;100059.53;;;1.28;70.39
22031;BME280;11179;52.106;21.024;2023-11-19T12:54:56;100056.00;;;1.28;70.42
22031;BME280;11179;52.106;21.024;2023-11-19T12:57:38;100087.63;;;1.47;70.49
22031;BME280;11179;52.106;21.024;2023-11-19T13:00:05;100097.88;;;1.58;70.49